sensor_id;sensor_type;location;lat;lon;timestamp;P1;durP1;ratioP1;P2;durP2;ratioP2
76795;SDS011;65745;50.278;18.192;2023-10-08T00:01:31;5.10;;;3.00;;
76795;SDS011;65745;50.278;18.192;2023-10-08T00:04:04;5.80;;;3.20;;
76795;SDS011;65745;50.278;18.192;2023-10-08T00:06:37;4.90;;;3.00;;
76795;SDS011;65745;50.278;18.192;2023-10-08T00:09:09;8.50;;;4.20;;
76795;SDS011;65745;50.278;18.192;2023-10-08T00:11:41;6.00;;;3.20;;
76795;SDS011;65745;50.278;18.192;2023-10-08T00:14:20;4.90;;;3.50;;
76795;SDS011;65745;50.278;18.192;2023-10-08T00:16:53;5.50;;;2.80;;
76795;SDS011;65745;50.278;18.192;2023-10-08T00:19:25;8.20;;;3.60;;
76795;SDS011;65745;50.278;18.192;2023-10-08T00:22:05;5.70;;;3.30;;
76795;SDS011;65745;50.278;18.192;2023-10-08T00:24:38;6.30;;;4.00;;
76795;SDS011;65745;50.278;18.192;2023-10-08T00:27:11;5.30;;;3.30;;
76795;SDS011;65745;50.278;18.192;2023-10-08T00:29:44;5.80;;;3.40;;
76795;SDS011;65745;50.278;18.192;2023-10-08T00:32:16;6.70;;;4.10;;
76795;SDS011;65745;50.278;18.192;2023-10-08T00:34:51;7.10;;;3.70;;
76795;SDS011;65745;50.278;18.192;2023-10-08T00:37:24;7.80;;;4.10;;
76795;SDS011;65745;50.278;18.192;2023-10-08T00:39:56;4.90;;;3.20;;
76795;SDS011;65745;50.278;18.192;2023-10-08T00:42:29;7.00;;;3.60;;
76795;SDS011;65745;50.278;18.192;2023-10-08T00:45:01;5.90;;;3.60;;
76795;SDS011;65745;50.278;18.192;2023-10-08T00:47:35;6.90;;;3.50;;
76795;SDS011;65745;50.278;18.192;2023-10-08T00:50:12;5.00;;;3.60;;
76795;SDS011;65745;50.278;18.192;2023-10-08T00:52:49;5.90;;;3.20;;
76795;SDS011;65745;50.278;18.192;2023-10-08T00:55:29;6.60;;;3.60;;
76795;SDS011;65745;50.278;18.192;2023-10-08T00:58:03;5.60;;;3.60;;
76795;SDS011;65745;50.278;18.192;2023-10-08T01:00:41;6.90;;;3.50;;
76795;SDS011;65745;50.278;18.192;2023-10-08T01:03:15;7.40;;;3.90;;
76795;SDS011;65745;50.278;18.192;2023-10-08T01:05:49;6.00;;;3.60;;
76795;SDS011;65745;50.278;18.192;2023-10-08T01:08:21;7.00;;;3.80;;
76795;SDS011;65745;50.278;18.192;2023-10-08T01:11:18;7.00;;;3.70;;
76795;SDS011;65745;50.278;18.192;2023-10-08T01:14:00;4.00;;;2.50;;
76795;SDS011;65745;50.278;18.192;2023-10-08T01:16:36;5.00;;;2.70;;
76795;SDS011;65745;50.278;18.192;2023-10-08T01:19:11;3.70;;;2.00;;
76795;SDS011;65745;50.278;18.192;2023-10-08T01:21:49;3.20;;;1.60;;
76795;SDS011;65745;50.278;18.192;2023-10-08T01:24:22;2.70;;;1.60;;
76795;SDS011;65745;50.278;18.192;2023-10-08T01:26:56;3.00;;;2.10;;
76795;SDS011;65745;50.278;18.192;2023-10-08T01:29:28;3.40;;;1.50;;
76795;SDS011;65745;50.278;18.192;2023-10-08T01:32:01;2.80;;;1.70;;
76795;SDS011;65745;50.278;18.192;2023-10-08T01:34:38;1.90;;;1.40;;
76795;SDS011;65745;50.278;18.192;2023-10-08T01:37:15;1.80;;;1.20;;
76795;SDS011;65745;50.278;18.192;2023-10-08T01:39:48;0.70;;;0.50;;
76795;SDS011;65745;50.278;18.192;2023-10-08T01:42:20;0.40;;;0.40;;
76795;SDS011;65745;50.278;18.192;2023-10-08T01:44:53;0.50;;;0.50;;
76795;SDS011;65745;50.278;18.192;2023-10-08T01:47:25;0.30;;;0.30;;
76795;SDS011;65745;50.278;18.192;2023-10-08T01:49:59;0.60;;;0.50;;
76795;SDS011;65745;50.278;18.192;2023-10-08T01:52:47;0.90;;;0.50;;
76795;SDS011;65745;50.278;18.192;2023-10-08T01:55:21;0.60;;;0.60;;
76795;SDS011;65745;50.278;18.192;2023-10-08T01:57:53;0.40;;;0.40;;
76795;SDS011;65745;50.278;18.192;2023-10-08T02:00:25;0.60;;;0.40;;
76795;SDS011;65745;50.278;18.192;2023-10-08T02:02:58;0.50;;;0.50;;
76795;SDS011;65745;50.278;18.192;2023-10-08T02:05:31;0.80;;;0.70;;
76795;SDS011;65745;50.278;18.192;2023-10-08T02:08:03;0.70;;;0.40;;
76795;SDS011;65745;50.278;18.192;2023-10-08T02:10:35;0.40;;;0.40;;
76795;SDS011;65745;50.278;18.192;2023-10-08T02:13:09;0.70;;;0.70;;
76795;SDS011;65745;50.278;18.192;2023-10-08T02:15:43;0.70;;;0.60;;
76795;SDS011;65745;50.278;18.192;2023-10-08T02:18:17;0.50;;;0.50;;
76795;SDS011;65745;50.278;18.192;2023-10-08T02:20:50;0.40;;;0.40;;
76795;SDS011;65745;50.278;18.192;2023-10-08T02:23:22;0.50;;;0.50;;
76795;SDS011;65745;50.278;18.192;2023-10-08T02:25:54;0.50;;;0.50;;
76795;SDS011;65745;50.278;18.192;2023-10-08T02:28:26;1.20;;;1.20;;
76795;SDS011;65745;50.278;18.192;2023-10-08T02:30:58;0.30;;;0.30;;
76795;SDS011;65745;50.278;18.192;2023-10-08T02:33:32;0.50;;;0.50;;
76795;SDS011;65745;50.278;18.192;2023-10-08T02:36:04;0.50;;;0.50;;
76795;SDS011;65745;50.278;18.192;2023-10-08T02:38:40;0.30;;;0.30;;
76795;SDS011;65745;50.278;18.192;2023-10-08T02:41:16;0.50;;;0.50;;
76795;SDS011;65745;50.278;18.192;2023-10-08T02:43:48;1.10;;;1.00;;
76795;SDS011;65745;50.278;18.192;2023-10-08T02:46:20;1.20;;;1.00;;
76795;SDS011;65745;50.278;18.192;2023-10-08T02:48:55;7.60;;;1.50;;
76795;SDS011;65745;50.278;18.192;2023-10-08T02:51:28;1.70;;;1.30;;
76795;SDS011;65745;50.278;18.192;2023-10-08T02:54:00;1.40;;;1.20;;
76795;SDS011;65745;50.278;18.192;2023-10-08T02:56:34;2.10;;;1.80;;
76795;SDS011;65745;50.278;18.192;2023-10-08T02:59:08;3.00;;;1.70;;
76795;SDS011;65745;50.278;18.192;2023-10-08T03:01:41;3.50;;;1.70;;
76795;SDS011;65745;50.278;18.192;2023-10-08T03:04:14;2.20;;;1.30;;
76795;SDS011;65745;50.278;18.192;2023-10-08T03:06:48;1.50;;;1.20;;
76795;SDS011;65745;50.278;18.192;2023-10-08T03:09:22;1.60;;;1.30;;
76795;SDS011;65745;50.278;18.192;2023-10-08T03:11:55;1.90;;;1.30;;
76795;SDS011;65745;50.278;18.192;2023-10-08T03:14:27;2.60;;;1.40;;
76795;SDS011;65745;50.278;18.192;2023-10-08T03:17:11;3.30;;;1.90;;
76795;SDS011;65745;50.278;18.192;2023-10-08T03:19:49;2.10;;;1.20;;
76795;SDS011;65745;50.278;18.192;2023-10-08T03:22:21;2.10;;;1.50;;
76795;SDS011;65745;50.278;18.192;2023-10-08T03:25:01;2.10;;;1.10;;
76795;SDS011;65745;50.278;18.192;2023-10-08T03:27:45;2.40;;;1.10;;
76795;SDS011;65745;50.278;18.192;2023-10-08T03:30:17;3.20;;;1.60;;
76795;SDS011;65745;50.278;18.192;2023-10-08T03:32:50;2.90;;;1.40;;
76795;SDS011;65745;50.278;18.192;2023-10-08T03:35:27;2.70;;;1.40;;
76795;SDS011;65745;50.278;18.192;2023-10-08T03:38:06;2.40;;;1.60;;
76795;SDS011;65745;50.278;18.192;2023-10-08T03:40:50;2.60;;;1.20;;
76795;SDS011;65745;50.278;18.192;2023-10-08T03:43:26;1.70;;;1.00;;
76795;SDS011;65745;50.278;18.192;2023-10-08T03:46:12;2.00;;;0.90;;
76795;SDS011;65745;50.278;18.192;2023-10-08T03:48:45;2.30;;;1.20;;
76795;SDS011;65745;50.278;18.192;2023-10-08T03:51:20;1.00;;;0.90;;
76795;SDS011;65745;50.278;18.192;2023-10-08T03:53:56;2.40;;;1.30;;
76795;SDS011;65745;50.278;18.192;2023-10-08T03:56:35;1.50;;;1.00;;
76795;SDS011;65745;50.278;18.192;2023-10-08T03:59:07;0.90;;;0.80;;
76795;SDS011;65745;50.278;18.192;2023-10-08T04:01:43;1.40;;;0.90;;
76795;SDS011;65745;50.278;18.192;2023-10-08T04:04:18;2.50;;;1.50;;
76795;SDS011;65745;50.278;18.192;2023-10-08T04:06:54;1.40;;;1.10;;
76795;SDS011;65745;50.278;18.192;2023-10-08T04:09:46;2.10;;;1.20;;
76795;SDS011;65745;50.278;18.192;2023-10-08T04:12:19;2.10;;;1.30;;
76795;SDS011;65745;50.278;18.192;2023-10-08T04:14:51;1.90;;;1.20;;
76795;SDS011;65745;50.278;18.192;2023-10-08T04:17:25;2.00;;;1.50;;
76795;SDS011;65745;50.278;18.192;2023-10-08T04:19:58;2.90;;;1.50;;
76795;SDS011;65745;50.278;18.192;2023-10-08T04:22:37;1.50;;;1.00;;
76795;SDS011;65745;50.278;18.192;2023-10-08T04:25:11;2.10;;;1.30;;
76795;SDS011;65745;50.278;18.192;2023-10-08T04:27:43;2.10;;;1.10;;
76795;SDS011;65745;50.278;18.192;2023-10-08T04:30:18;2.80;;;1.50;;
76795;SDS011;65745;50.278;18.192;2023-10-08T04:32:51;1.50;;;1.40;;
76795;SDS011;65745;50.278;18.192;2023-10-08T04:35:23;1.80;;;1.40;;
76795;SDS011;65745;50.278;18.192;2023-10-08T04:37:56;1.80;;;1.20;;
76795;SDS011;65745;50.278;18.192;2023-10-08T04:40:28;2.80;;;1.60;;
76795;SDS011;65745;50.278;18.192;2023-10-08T04:43:08;5.00;;;2.20;;
76795;SDS011;65745;50.278;18.192;2023-10-08T04:45:40;4.40;;;2.60;;
76795;SDS011;65745;50.278;18.192;2023-10-08T04:48:12;3.20;;;1.90;;
76795;SDS011;65745;50.278;18.192;2023-10-08T04:50:50;2.70;;;1.60;;
76795;SDS011;65745;50.278;18.192;2023-10-08T04:53:28;2.50;;;1.20;;
76795;SDS011;65745;50.278;18.192;2023-10-08T04:56:07;2.00;;;1.10;;
76795;SDS011;65745;50.278;18.192;2023-10-08T04:58:46;2.10;;;1.10;;
76795;SDS011;65745;50.278;18.192;2023-10-08T05:01:19;2.90;;;1.70;;
76795;SDS011;65745;50.278;18.192;2023-10-08T05:03:57;1.80;;;1.10;;
76795;SDS011;65745;50.278;18.192;2023-10-08T05:06:54;2.10;;;1.20;;
76795;SDS011;65745;50.278;18.192;2023-10-08T05:10:01;2.70;;;1.30;;
76795;SDS011;65745;50.278;18.192;2023-10-08T05:12:59;2.70;;;1.20;;
76795;SDS011;65745;50.278;18.192;2023-10-08T05:15:44;2.90;;;1.40;;
76795;SDS011;65745;50.278;18.192;2023-10-08T05:18:32;1.80;;;1.10;;
76795;SDS011;65745;50.278;18.192;2023-10-08T05:21:23;2.60;;;1.30;;
76795;SDS011;65745;50.278;18.192;2023-10-08T05:24:03;3.80;;;2.20;;
76795;SDS011;65745;50.278;18.192;2023-10-08T05:26:41;2.70;;;1.80;;
76795;SDS011;65745;50.278;18.192;2023-10-08T05:29:28;3.60;;;1.90;;
76795;SDS011;65745;50.278;18.192;2023-10-08T05:32:18;3.90;;;2.10;;
76795;SDS011;65745;50.278;18.192;2023-10-08T05:35:15;3.00;;;1.70;;
76795;SDS011;65745;50.278;18.192;2023-10-08T05:38:05;3.80;;;1.60;;
76795;SDS011;65745;50.278;18.192;2023-10-08T05:40:45;3.30;;;2.10;;
76795;SDS011;65745;50.278;18.192;2023-10-08T05:43:36;2.60;;;1.40;;
76795;SDS011;65745;50.278;18.192;2023-10-08T05:46:34;2.60;;;1.70;;
76795;SDS011;65745;50.278;18.192;2023-10-08T05:49:16;3.40;;;1.30;;
76795;SDS011;65745;50.278;18.192;2023-10-08T05:52:06;4.80;;;2.10;;
76795;SDS011;65745;50.278;18.192;2023-10-08T05:55:10;2.00;;;1.50;;
76795;SDS011;65745;50.278;18.192;2023-10-08T05:57:58;7.80;;;2.20;;
76795;SDS011;65745;50.278;18.192;2023-10-08T06:00:53;2.70;;;1.50;;
76795;SDS011;65745;50.278;18.192;2023-10-08T06:03:37;3.30;;;1.60;;
76795;SDS011;65745;50.278;18.192;2023-10-08T06:06:30;3.90;;;1.90;;
76795;SDS011;65745;50.278;18.192;2023-10-08T06:09:16;2.80;;;1.80;;
76795;SDS011;65745;50.278;18.192;2023-10-08T06:11:51;4.10;;;1.60;;
76795;SDS011;65745;50.278;18.192;2023-10-08T06:14:37;10.20;;;5.20;;
76795;SDS011;65745;50.278;18.192;2023-10-08T06:17:26;29.30;;;15.90;;
76795;SDS011;65745;50.278;18.192;2023-10-08T06:20:27;11.10;;;4.60;;
76795;SDS011;65745;50.278;18.192;2023-10-08T06:22:59;17.60;;;8.30;;
76795;SDS011;65745;50.278;18.192;2023-10-08T06:25:36;7.80;;;4.60;;
76795;SDS011;65745;50.278;18.192;2023-10-08T06:28:15;9.60;;;4.90;;
76795;SDS011;65745;50.278;18.192;2023-10-08T06:30:49;7.80;;;3.80;;
76795;SDS011;65745;50.278;18.192;2023-10-08T06:33:23;19.90;;;10.30;;
76795;SDS011;65745;50.278;18.192;2023-10-08T06:36:00;9.60;;;5.20;;
76795;SDS011;65745;50.278;18.192;2023-10-08T06:38:43;39.80;;;18.80;;
76795;SDS011;65745;50.278;18.192;2023-10-08T06:41:18;12.50;;;7.70;;
76795;SDS011;65745;50.278;18.192;2023-10-08T06:44:18;7.10;;;3.80;;
76795;SDS011;65745;50.278;18.192;2023-10-08T06:46:51;7.60;;;6.40;;
76795;SDS011;65745;50.278;18.192;2023-10-08T06:49:24;4.80;;;3.20;;
76795;SDS011;65745;50.278;18.192;2023-10-08T06:51:56;3.40;;;1.90;;
76795;SDS011;65745;50.278;18.192;2023-10-08T06:54:28;4.30;;;2.70;;
76795;SDS011;65745;50.278;18.192;2023-10-08T06:57:03;3.60;;;3.30;;
76795;SDS011;65745;50.278;18.192;2023-10-08T06:59:43;3.80;;;2.20;;
76795;SDS011;65745;50.278;18.192;2023-10-08T07:02:15;2.00;;;1.60;;
76795;SDS011;65745;50.278;18.192;2023-10-08T07:04:49;4.40;;;2.50;;
76795;SDS011;65745;50.278;18.192;2023-10-08T07:07:22;4.00;;;2.60;;
76795;SDS011;65745;50.278;18.192;2023-10-08T07:09:58;4.30;;;2.60;;
76795;SDS011;65745;50.278;18.192;2023-10-08T07:12:30;3.20;;;2.30;;
76795;SDS011;65745;50.278;18.192;2023-10-08T07:15:05;4.10;;;3.00;;
76795;SDS011;65745;50.278;18.192;2023-10-08T07:17:41;2.60;;;1.70;;
76795;SDS011;65745;50.278;18.192;2023-10-08T07:20:14;3.80;;;3.00;;
76795;SDS011;65745;50.278;18.192;2023-10-08T07:22:52;3.80;;;2.90;;
76795;SDS011;65745;50.278;18.192;2023-10-08T07:25:24;5.20;;;3.40;;
76795;SDS011;65745;50.278;18.192;2023-10-08T07:28:06;4.70;;;2.50;;
76795;SDS011;65745;50.278;18.192;2023-10-08T07:30:41;3.20;;;2.20;;
76795;SDS011;65745;50.278;18.192;2023-10-08T07:33:14;5.20;;;2.70;;
76795;SDS011;65745;50.278;18.192;2023-10-08T07:35:48;4.00;;;1.90;;
76795;SDS011;65745;50.278;18.192;2023-10-08T07:38:26;4.80;;;2.20;;
76795;SDS011;65745;50.278;18.192;2023-10-08T07:40:59;7.00;;;4.10;;
76795;SDS011;65745;50.278;18.192;2023-10-08T07:43:31;3.30;;;2.50;;
76795;SDS011;65745;50.278;18.192;2023-10-08T07:46:03;6.60;;;3.90;;
76795;SDS011;65745;50.278;18.192;2023-10-08T07:48:35;3.70;;;3.10;;
76795;SDS011;65745;50.278;18.192;2023-10-08T07:51:12;5.90;;;4.00;;
76795;SDS011;65745;50.278;18.192;2023-10-08T07:53:46;4.50;;;2.90;;
76795;SDS011;65745;50.278;18.192;2023-10-08T07:56:18;5.10;;;3.80;;
76795;SDS011;65745;50.278;18.192;2023-10-08T07:58:50;7.50;;;3.20;;
76795;SDS011;65745;50.278;18.192;2023-10-08T08:01:25;4.50;;;2.30;;
76795;SDS011;65745;50.278;18.192;2023-10-08T08:03:57;3.60;;;2.80;;
76795;SDS011;65745;50.278;18.192;2023-10-08T08:06:29;5.30;;;3.70;;
76795;SDS011;65745;50.278;18.192;2023-10-08T08:09:03;8.40;;;4.50;;
76795;SDS011;65745;50.278;18.192;2023-10-08T08:11:46;6.00;;;3.50;;
76795;SDS011;65745;50.278;18.192;2023-10-08T08:14:19;5.60;;;4.20;;
76795;SDS011;65745;50.278;18.192;2023-10-08T08:16:54;5.80;;;3.60;;
76795;SDS011;65745;50.278;18.192;2023-10-08T08:19:42;6.50;;;4.20;;
76795;SDS011;65745;50.278;18.192;2023-10-08T08:22:17;5.30;;;3.50;;
76795;SDS011;65745;50.278;18.192;2023-10-08T08:24:53;5.40;;;4.10;;
76795;SDS011;65745;50.278;18.192;2023-10-08T08:27:34;5.90;;;3.80;;
76795;SDS011;65745;50.278;18.192;2023-10-08T08:30:08;5.20;;;4.30;;
76795;SDS011;65745;50.278;18.192;2023-10-08T08:32:45;5.70;;;4.10;;
76795;SDS011;65745;50.278;18.192;2023-10-08T08:35:21;6.20;;;4.40;;
76795;SDS011;65745;50.278;18.192;2023-10-08T08:37:54;6.90;;;5.00;;
76795;SDS011;65745;50.278;18.192;2023-10-08T08:40:26;8.40;;;4.80;;
76795;SDS011;65745;50.278;18.192;2023-10-08T08:42:58;8.30;;;4.50;;
76795;SDS011;65745;50.278;18.192;2023-10-08T08:45:34;5.10;;;3.90;;
76795;SDS011;65745;50.278;18.192;2023-10-08T08:48:09;5.70;;;3.40;;
76795;SDS011;65745;50.278;18.192;2023-10-08T08:50:43;8.70;;;4.00;;
76795;SDS011;65745;50.278;18.192;2023-10-08T08:53:17;6.30;;;3.40;;
76795;SDS011;65745;50.278;18.192;2023-10-08T08:55:51;4.70;;;3.20;;
76795;SDS011;65745;50.278;18.192;2023-10-08T08:58:25;5.50;;;2.50;;
76795;SDS011;65745;50.278;18.192;2023-10-08T09:00:58;3.30;;;2.80;;
76795;SDS011;65745;50.278;18.192;2023-10-08T09:03:32;4.90;;;3.10;;
76795;SDS011;65745;50.278;18.192;2023-10-08T09:06:06;4.80;;;2.90;;
76795;SDS011;65745;50.278;18.192;2023-10-08T09:08:40;5.20;;;3.40;;
76795;SDS011;65745;50.278;18.192;2023-10-08T09:11:15;6.60;;;3.30;;
76795;SDS011;65745;50.278;18.192;2023-10-08T09:13:48;5.30;;;3.20;;
76795;SDS011;65745;50.278;18.192;2023-10-08T09:16:20;5.10;;;2.80;;
76795;SDS011;65745;50.278;18.192;2023-10-08T09:18:52;6.10;;;3.00;;
76795;SDS011;65745;50.278;18.192;2023-10-08T09:21:24;3.60;;;2.70;;
76795;SDS011;65745;50.278;18.192;2023-10-08T09:23:56;5.50;;;2.80;;
76795;SDS011;65745;50.278;18.192;2023-10-08T09:26:28;3.60;;;2.50;;
76795;SDS011;65745;50.278;18.192;2023-10-08T09:29:00;3.90;;;2.70;;
76795;SDS011;65745;50.278;18.192;2023-10-08T09:31:34;4.10;;;2.60;;
76795;SDS011;65745;50.278;18.192;2023-10-08T09:34:06;5.20;;;3.00;;
76795;SDS011;65745;50.278;18.192;2023-10-08T09:36:39;4.40;;;2.90;;
76795;SDS011;65745;50.278;18.192;2023-10-08T09:39:11;5.70;;;3.80;;
76795;SDS011;65745;50.278;18.192;2023-10-08T09:41:52;5.70;;;2.80;;
76795;SDS011;65745;50.278;18.192;2023-10-08T09:44:25;5.20;;;3.30;;
76795;SDS011;65745;50.278;18.192;2023-10-08T09:46:59;11.10;;;9.30;;
76795;SDS011;65745;50.278;18.192;2023-10-08T09:49:38;14.20;;;12.00;;
76795;SDS011;65745;50.278;18.192;2023-10-08T09:52:12;28.70;;;17.70;;
76795;SDS011;65745;50.278;18.192;2023-10-08T09:54:48;12.30;;;7.30;;
76795;SDS011;65745;50.278;18.192;2023-10-08T09:57:32;10.00;;;6.00;;
76795;SDS011;65745;50.278;18.192;2023-10-08T10:00:06;6.10;;;3.30;;
76795;SDS011;65745;50.278;18.192;2023-10-08T10:02:44;12.20;;;6.20;;
76795;SDS011;65745;50.278;18.192;2023-10-08T10:05:20;6.70;;;4.40;;
76795;SDS011;65745;50.278;18.192;2023-10-08T10:07:56;5.00;;;3.30;;
76795;SDS011;65745;50.278;18.192;2023-10-08T10:10:28;5.20;;;2.70;;
76795;SDS011;65745;50.278;18.192;2023-10-08T10:13:04;3.50;;;2.40;;
76795;SDS011;65745;50.278;18.192;2023-10-08T10:15:37;3.80;;;2.30;;
76795;SDS011;65745;50.278;18.192;2023-10-08T10:18:15;5.60;;;4.00;;
76795;SDS011;65745;50.278;18.192;2023-10-08T10:20:59;4.50;;;3.30;;
76795;SDS011;65745;50.278;18.192;2023-10-08T10:23:51;3.40;;;3.10;;
76795;SDS011;65745;50.278;18.192;2023-10-08T10:26:25;3.00;;;2.70;;
76795;SDS011;65745;50.278;18.192;2023-10-08T10:31:50;5.50;;;2.70;;
76795;SDS011;65745;50.278;18.192;2023-10-08T10:34:24;3.20;;;2.10;;
76795;SDS011;65745;50.278;18.192;2023-10-08T10:36:58;5.60;;;5.10;;
76795;SDS011;65745;50.278;18.192;2023-10-08T10:39:38;14.10;;;6.80;;
76795;SDS011;65745;50.278;18.192;2023-10-08T10:42:11;6.40;;;4.00;;
76795;SDS011;65745;50.278;18.192;2023-10-08T10:44:51;3.30;;;1.90;;
76795;SDS011;65745;50.278;18.192;2023-10-08T10:47:25;6.20;;;3.60;;
76795;SDS011;65745;50.278;18.192;2023-10-08T10:50:12;4.10;;;2.00;;
76795;SDS011;65745;50.278;18.192;2023-10-08T10:52:55;12.50;;;6.10;;
76795;SDS011;65745;50.278;18.192;2023-10-08T10:55:38;6.60;;;3.60;;
76795;SDS011;65745;50.278;18.192;2023-10-08T10:58:17;10.30;;;5.80;;
76795;SDS011;65745;50.278;18.192;2023-10-08T11:00:53;11.40;;;5.80;;
76795;SDS011;65745;50.278;18.192;2023-10-08T11:03:33;7.20;;;3.30;;
76795;SDS011;65745;50.278;18.192;2023-10-08T11:06:06;16.50;;;6.90;;
76795;SDS011;65745;50.278;18.192;2023-10-08T11:08:44;18.70;;;7.50;;
76795;SDS011;65745;50.278;18.192;2023-10-08T11:11:17;12.90;;;5.70;;
76795;SDS011;65745;50.278;18.192;2023-10-08T11:13:57;11.40;;;5.60;;
76795;SDS011;65745;50.278;18.192;2023-10-08T11:16:31;16.70;;;8.60;;
76795;SDS011;65745;50.278;18.192;2023-10-08T11:19:07;15.50;;;8.50;;
76795;SDS011;65745;50.278;18.192;2023-10-08T11:21:51;5.70;;;3.10;;
76795;SDS011;65745;50.278;18.192;2023-10-08T11:24:30;12.90;;;6.20;;
76795;SDS011;65745;50.278;18.192;2023-10-08T11:27:04;10.70;;;5.80;;
76795;SDS011;65745;50.278;18.192;2023-10-08T11:29:46;13.30;;;7.10;;
76795;SDS011;65745;50.278;18.192;2023-10-08T11:32:26;8.10;;;4.30;;
76795;SDS011;65745;50.278;18.192;2023-10-08T11:35:02;4.00;;;2.40;;
76795;SDS011;65745;50.278;18.192;2023-10-08T11:37:46;5.10;;;2.90;;
76795;SDS011;65745;50.278;18.192;2023-10-08T11:40:23;8.70;;;5.10;;
76795;SDS011;65745;50.278;18.192;2023-10-08T11:42:59;5.20;;;3.40;;
76795;SDS011;65745;50.278;18.192;2023-10-08T11:45:32;2.80;;;1.60;;
76795;SDS011;65745;50.278;18.192;2023-10-08T11:48:08;4.90;;;2.90;;
76795;SDS011;65745;50.278;18.192;2023-10-08T11:50:42;3.10;;;1.40;;
76795;SDS011;65745;50.278;18.192;2023-10-08T11:53:14;2.40;;;1.40;;
76795;SDS011;65745;50.278;18.192;2023-10-08T11:55:48;2.00;;;1.10;;
76795;SDS011;65745;50.278;18.192;2023-10-08T11:58:26;2.00;;;1.30;;
76795;SDS011;65745;50.278;18.192;2023-10-08T12:01:06;1.80;;;1.20;;
76795;SDS011;65745;50.278;18.192;2023-10-08T12:03:45;2.10;;;1.50;;
76795;SDS011;65745;50.278;18.192;2023-10-08T12:06:19;1.40;;;0.90;;
76795;SDS011;65745;50.278;18.192;2023-10-08T12:08:53;4.40;;;2.00;;
76795;SDS011;65745;50.278;18.192;2023-10-08T12:11:28;3.20;;;1.90;;
76795;SDS011;65745;50.278;18.192;2023-10-08T12:14:01;4.40;;;2.70;;
76795;SDS011;65745;50.278;18.192;2023-10-08T12:16:34;5.20;;;2.60;;
76795;SDS011;65745;50.278;18.192;2023-10-08T12:19:08;7.10;;;4.20;;
76795;SDS011;65745;50.278;18.192;2023-10-08T12:21:45;6.10;;;3.00;;
76795;SDS011;65745;50.278;18.192;2023-10-08T12:24:18;4.50;;;2.30;;
76795;SDS011;65745;50.278;18.192;2023-10-08T12:26:50;1.70;;;1.20;;
76795;SDS011;65745;50.278;18.192;2023-10-08T12:29:22;2.10;;;1.20;;
76795;SDS011;65745;50.278;18.192;2023-10-08T12:31:56;2.40;;;1.50;;
76795;SDS011;65745;50.278;18.192;2023-10-08T12:34:29;1.20;;;0.80;;
76795;SDS011;65745;50.278;18.192;2023-10-08T12:37:04;1.70;;;1.10;;
76795;SDS011;65745;50.278;18.192;2023-10-08T12:39:36;2.20;;;1.20;;
76795;SDS011;65745;50.278;18.192;2023-10-08T12:42:25;2.20;;;1.40;;
76795;SDS011;65745;50.278;18.192;2023-10-08T12:44:59;2.50;;;1.80;;
76795;SDS011;65745;50.278;18.192;2023-10-08T12:47:40;2.70;;;1.30;;
76795;SDS011;65745;50.278;18.192;2023-10-08T12:50:13;2.10;;;1.30;;
76795;SDS011;65745;50.278;18.192;2023-10-08T12:52:45;1.70;;;1.20;;
76795;SDS011;65745;50.278;18.192;2023-10-08T12:55:22;1.70;;;1.10;;
76795;SDS011;65745;50.278;18.192;2023-10-08T12:57:54;1.50;;;1.10;;
76795;SDS011;65745;50.278;18.192;2023-10-08T13:00:35;2.10;;;1.00;;
76795;SDS011;65745;50.278;18.192;2023-10-08T13:05:45;2.30;;;1.70;;
76795;SDS011;65745;50.278;18.192;2023-10-08T13:08:17;2.70;;;1.70;;
76795;SDS011;65745;50.278;18.192;2023-10-08T13:10:49;1.80;;;1.30;;
76795;SDS011;65745;50.278;18.192;2023-10-08T13:13:21;3.10;;;1.60;;
76795;SDS011;65745;50.278;18.192;2023-10-08T13:15:55;2.20;;;1.30;;
76795;SDS011;65745;50.278;18.192;2023-10-08T13:18:29;2.10;;;1.50;;
76795;SDS011;65745;50.278;18.192;2023-10-08T13:21:02;1.70;;;1.00;;
76795;SDS011;65745;50.278;18.192;2023-10-08T13:23:36;1.70;;;1.30;;
76795;SDS011;65745;50.278;18.192;2023-10-08T13:26:08;2.00;;;1.20;;
76795;SDS011;65745;50.278;18.192;2023-10-08T13:28:46;2.00;;;1.40;;
76795;SDS011;65745;50.278;18.192;2023-10-08T13:31:18;2.00;;;1.30;;
76795;SDS011;65745;50.278;18.192;2023-10-08T13:33:51;2.00;;;1.00;;
76795;SDS011;65745;50.278;18.192;2023-10-08T13:36:26;2.30;;;1.40;;
76795;SDS011;65745;50.278;18.192;2023-10-08T13:38:58;1.90;;;1.20;;
76795;SDS011;65745;50.278;18.192;2023-10-08T13:41:30;2.60;;;1.30;;
76795;SDS011;65745;50.278;18.192;2023-10-08T13:44:04;1.40;;;1.00;;
76795;SDS011;65745;50.278;18.192;2023-10-08T13:46:36;1.90;;;1.20;;
76795;SDS011;65745;50.278;18.192;2023-10-08T13:49:12;6.70;;;6.00;;
76795;SDS011;65745;50.278;18.192;2023-10-08T13:51:45;4.30;;;3.80;;
76795;SDS011;65745;50.278;18.192;2023-10-08T13:54:26;3.00;;;1.80;;
76795;SDS011;65745;50.278;18.192;2023-10-08T13:56:59;2.80;;;1.80;;
76795;SDS011;65745;50.278;18.192;2023-10-08T13:59:32;6.30;;;5.70;;
76795;SDS011;65745;50.278;18.192;2023-10-08T14:02:04;2.30;;;1.60;;
76795;SDS011;65745;50.278;18.192;2023-10-08T14:04:44;2.50;;;1.30;;
76795;SDS011;65745;50.278;18.192;2023-10-08T14:07:19;2.20;;;1.30;;
76795;SDS011;65745;50.278;18.192;2023-10-08T14:09:52;9.50;;;5.20;;
76795;SDS011;65745;50.278;18.192;2023-10-08T14:12:24;7.00;;;4.00;;
76795;SDS011;65745;50.278;18.192;2023-10-08T14:14:56;11.90;;;6.70;;
76795;SDS011;65745;50.278;18.192;2023-10-08T14:17:29;12.00;;;6.40;;
76795;SDS011;65745;50.278;18.192;2023-10-08T14:20:12;9.50;;;4.30;;
76795;SDS011;65745;50.278;18.192;2023-10-08T14:22:51;3.70;;;2.30;;
76795;SDS011;65745;50.278;18.192;2023-10-08T14:25:27;3.50;;;2.30;;
76795;SDS011;65745;50.278;18.192;2023-10-08T14:28:02;9.30;;;5.30;;
76795;SDS011;65745;50.278;18.192;2023-10-08T14:30:37;11.00;;;5.60;;
76795;SDS011;65745;50.278;18.192;2023-10-08T14:33:11;8.50;;;3.00;;
76795;SDS011;65745;50.278;18.192;2023-10-08T14:35:54;10.50;;;5.80;;
76795;SDS011;65745;50.278;18.192;2023-10-08T14:38:43;8.90;;;3.90;;
76795;SDS011;65745;50.278;18.192;2023-10-08T14:41:33;5.50;;;2.70;;
76795;SDS011;65745;50.278;18.192;2023-10-08T14:44:23;10.50;;;5.40;;
76795;SDS011;65745;50.278;18.192;2023-10-08T14:46:56;4.90;;;2.90;;
76795;SDS011;65745;50.278;18.192;2023-10-08T14:49:28;10.30;;;4.70;;
76795;SDS011;65745;50.278;18.192;2023-10-08T14:52:01;8.30;;;5.10;;
76795;SDS011;65745;50.278;18.192;2023-10-08T14:54:34;6.00;;;3.30;;
76795;SDS011;65745;50.278;18.192;2023-10-08T14:57:07;8.10;;;4.20;;
76795;SDS011;65745;50.278;18.192;2023-10-08T14:59:41;8.20;;;3.70;;
76795;SDS011;65745;50.278;18.192;2023-10-08T15:02:13;13.50;;;6.30;;
76795;SDS011;65745;50.278;18.192;2023-10-08T15:04:45;9.10;;;4.10;;
76795;SDS011;65745;50.278;18.192;2023-10-08T15:07:18;9.70;;;3.60;;
76795;SDS011;65745;50.278;18.192;2023-10-08T15:09:50;7.00;;;3.10;;
76795;SDS011;65745;50.278;18.192;2023-10-08T15:12:24;8.70;;;3.50;;
76795;SDS011;65745;50.278;18.192;2023-10-08T15:14:56;11.70;;;4.30;;
76795;SDS011;65745;50.278;18.192;2023-10-08T15:17:28;7.20;;;3.20;;
76795;SDS011;65745;50.278;18.192;2023-10-08T15:20:04;9.40;;;4.20;;
76795;SDS011;65745;50.278;18.192;2023-10-08T15:22:37;9.90;;;3.90;;
76795;SDS011;65745;50.278;18.192;2023-10-08T15:25:11;12.60;;;6.10;;
76795;SDS011;65745;50.278;18.192;2023-10-08T15:27:46;8.50;;;3.70;;
76795;SDS011;65745;50.278;18.192;2023-10-08T15:30:19;15.60;;;8.00;;
76795;SDS011;65745;50.278;18.192;2023-10-08T15:32:52;13.00;;;4.90;;